Time;durP1;ratioP1;P1;durP2;ratioP2;P2;SDS_P1;SDS_P2;PMS_P1;PMS_P2;Temp;Humidity;BMP_temperature;BMP_pressure;BME280_temperature;BME280_humidity;BME280_pressure;Samples;Min_cycle;Max_cycle;Signal;HPM_P1;HPM_P2
2023/06/13 00:02:51;;;;;;;10.57;5.13;;;;;;;17.12;56.66;99498.06;12248216;19;20351;-84
2023/06/13 00:06:54;;;;;;;10.13;4.67;;;;;;;17.01;56.38;99491.84;12245709;19;20366;-85
2023/06/13 00:10:58;;;;;;;7.95;5.38;;;;;;;16.97;57.00;99501.06;12238082;19;20011;-83
2023/06/13 00:15:02;;;;;;;7.15;4.68;;;;;;;16.91;57.34;99496.69;12245431;19;20826;-84
2023/06/13 00:19:05;;;;;;;7.22;4.80;;;;;;;16.88;57.52;99502.88;12241094;19;20017;-85
2023/06/13 00:23:08;;;;;;;8.25;4.97;;;;;;;16.87;57.12;99512.34;12243097;19;20011;-84
2023/06/13 00:27:10;;;;;;;6.35;4.57;;;;;;;16.83;57.22;99509.31;12240369;19;20011;-83
2023/06/13 00:31:12;;;;;;;10.63;4.90;;;;;;;16.82;56.16;99507.66;12238728;19;20015;-83
2023/06/13 00:35:14;;;;;;;7.22;4.65;;;;;;;16.83;57.07;99512.91;12241839;19;20085;-85
2023/06/13 00:39:41;;;;;;;7.43;4.63;;;;;;;16.76;58.29;99511.66;12241075;19;20013;-83
2023/06/13 00:43:43;;;;;;;8.80;3.92;;;;;;;16.67;58.66;99507.84;12241026;19;20027;-84
2023/06/13 00:47:51;;;;;;;8.10;4.97;;;;;;;16.57;59.24;99506.84;12238913;19;20007;-85
2023/06/13 00:52:00;;;;;;;7.63;4.60;;;;;;;16.46;59.91;99502.53;12238803;19;20007;-85
2023/06/13 00:56:06;;;;;;;11.05;4.78;;;;;;;16.35;59.30;99507.38;12234799;19;20007;-83
2023/06/13 01:00:09;;;;;;;6.15;4.32;;;;;;;16.33;59.93;99509.63;12237118;19;20011;-84
2023/06/13 01:04:13;;;;;;;6.75;3.97;;;;;;;16.25;61.00;99512.22;12237750;19;20480;-83
2023/06/13 01:08:24;;;;;;;12.20;4.93;;;;;;;16.13;60.99;99520.97;12235437;19;20432;-83
2023/06/13 01:12:36;;;;;;;6.45;4.28;;;;;;;16.03;60.96;99512.72;12234894;19;20057;-82
2023/06/13 01:16:45;;;;;;;8.18;4.85;;;;;;;15.93;62.10;99522.81;12236698;19;20014;-85
2023/06/13 01:20:47;;;;;;;7.05;4.28;;;;;;;15.84;62.83;99512.63;12235666;19;20006;-86
2023/06/13 01:25:10;;;;;;;6.65;4.45;;;;;;;15.77;63.04;99517.72;12236721;19;20015;-84
2023/06/13 01:29:14;;;;;;;8.90;5.10;;;;;;;15.67;62.96;99513.03;12236247;19;20030;-84
2023/06/13 01:33:17;;;;;;;9.10;5.03;;;;;;;15.63;63.91;99511.94;12232459;19;20283;-84
2023/06/13 01:37:19;;;;;;;7.93;4.35;;;;;;;15.60;63.17;99515.31;12232998;19;20010;-85
2023/06/13 01:41:20;;;;;;;8.80;4.50;;;;;;;15.54;63.29;99497.84;12236329;19;20704;-85
2023/06/13 01:45:24;;;;;;;8.13;4.30;;;;;;;15.51;64.40;99504.00;12233897;19;20031;-83
2023/06/13 01:49:39;;;;;;;7.68;4.80;;;;;;;15.45;64.21;99503.19;12236718;19;20022;-83
2023/06/13 01:54:01;;;;;;;6.43;4.30;;;;;;;15.41;64.96;99499.34;12231653;19;20006;-83
2023/06/13 01:58:31;;;;;;;6.93;4.55;;;;;;;15.36;65.87;99507.72;12230470;19;20011;-83
2023/06/13 02:02:33;;;;;;;8.20;4.57;;;;;;;15.29;65.03;99498.91;12233402;19;20018;-82
2023/06/13 02:06:35;;;;;;;8.77;4.00;;;;;;;15.24;65.23;99498.94;12233870;19;20406;-85
2023/06/13 02:10:37;;;;;;;10.00;5.07;;;;;;;15.19;66.13;99496.19;12232314;19;20014;-85
2023/06/13 02:14:39;;;;;;;8.77;4.35;;;;;;;15.15;66.87;99498.72;12236630;19;20021;-84
2023/06/13 02:18:41;;;;;;;8.35;4.10;;;;;;;15.14;67.27;99498.97;12233324;19;20007;-85
2023/06/13 02:22:43;;;;;;;6.53;3.88;;;;;;;15.12;67.26;99495.69;12230786;19;20029;-84
2023/06/13 02:26:45;;;;;;;6.18;3.58;;;;;;;15.09;67.76;99496.25;12232414;19;20019;-84
2023/06/13 02:30:47;;;;;;;7.88;4.65;;;;;;;15.04;68.25;99502.66;12233791;19;20007;-85
2023/06/13 02:34:49;;;;;;;7.60;4.03;;;;;;;14.98;68.76;99495.47;12245410;19;20014;-84
2023/06/13 02:38:51;;;;;;;8.50;4.07;;;;;;;14.91;68.88;99498.56;12246515;19;20010;-83
2023/06/13 02:42:53;;;;;;;7.47;4.60;;;;;;;14.86;69.33;99484.72;12245257;19;20002;-85
2023/06/13 02:46:55;;;;;;;5.57;3.53;;;;;;;14.81;69.61;99482.84;12234153;19;19999;-84
2023/06/13 02:50:57;;;;;;;7.07;3.95;;;;;;;14.79;69.13;99487.00;12243455;19;20040;-83
2023/06/13 02:54:59;;;;;;;9.43;4.50;;;;;;;14.74;69.31;99490.63;12243466;19;20019;-83
2023/06/13 02:59:01;;;;;;;7.47;4.47;;;;;;;14.71;69.45;99484.81;12238663;19;20023;-85
2023/06/13 03:03:03;;;;;;;8.02;4.20;;;;;;;14.69;69.38;99492.59;12242365;19;20010;-84
2023/06/13 03:07:10;;;;;;;8.30;4.65;;;;;;;14.70;69.09;99497.03;12238922;19;20006;-84
2023/06/13 03:11:13;;;;;;;7.45;4.50;;;;;;;14.72;69.16;99492.88;12242800;19;20035;-82
2023/06/13 03:15:17;;;;;;;6.28;4.55;;;;;;;14.69;69.60;99492.59;12241803;19;20674;-83
2023/06/13 03:19:21;;;;;;;6.80;4.47;;;;;;;14.66;70.06;99490.38;12243507;19;20497;-83
2023/06/13 03:23:23;;;;;;;8.57;4.53;;;;;;;14.58;70.37;99495.41;12241299;19;20010;-84
2023/06/13 03:27:25;;;;;;;9.57;4.43;;;;;;;14.58;70.92;99498.19;12238388;19;20015;-83
2023/06/13 03:31:27;;;;;;;8.52;4.03;;;;;;;14.58;70.81;99498.19;12242645;19;20030;-85
2023/06/13 03:35:30;;;;;;;9.60;5.28;;;;;;;14.62;70.73;99494.84;12240982;19;20045;-84
2023/06/13 03:39:33;;;;;;;6.77;4.37;;;;;;;14.65;70.84;99495.09;12270578;19;20006;-85
2023/06/13 03:43:35;;;;;;;6.82;4.45;;;;;;;14.67;70.82;99489.28;12246770;19;20475;-82
2023/06/13 03:47:37;;;;;;;6.78;4.70;;;;;;;14.66;71.51;99487.59;12241853;19;20014;-84
2023/06/13 03:51:39;;;;;;;6.43;4.10;;;;;;;14.64;71.88;99495.41;12245243;19;20015;-84
2023/06/13 03:55:41;;;;;;;6.45;4.25;;;;;;;14.64;72.26;99501.78;12243934;19;20022;-85
2023/06/13 03:59:43;;;;;;;6.65;4.30;;;;;;;14.63;73.33;99494.53;12245629;19;20007;-84
2023/06/13 04:03:44;;;;;;;8.00;4.07;;;;;;;14.62;73.29;99490.13;12258345;19;20017;-82
2023/06/13 04:07:48;;;;;;;9.60;4.72;;;;;;;14.61;73.66;99493.19;12246513;19;20011;-84
2023/06/13 04:11:50;;;;;;;8.32;4.57;;;;;;;14.57;73.44;99490.13;12246304;19;20471;-84
2023/06/13 04:15:52;;;;;;;5.73;4.20;;;;;;;14.54;73.75;99494.31;12243703;19;20019;-85
2023/06/13 04:19:56;;;;;;;6.70;4.53;;;;;;;14.53;75.00;99500.97;12242237;19;20304;-84
2023/06/13 04:23:58;;;;;;;11.05;4.38;;;;;;;14.54;74.78;99507.34;12244503;19;20007;-84
2023/06/13 04:28:02;;;;;;;6.13;4.10;;;;;;;14.53;74.45;99509.28;12241125;19;20074;-85
2023/06/13 04:32:07;;;;;;;6.60;4.13;;;;;;;14.55;74.46;99515.41;12242197;19;20025;-85
2023/06/13 04:36:09;;;;;;;6.32;4.43;;;;;;;14.63;74.04;99516.72;12245480;19;20263;-83
2023/06/13 04:40:13;;;;;;;8.68;4.63;;;;;;;14.71;73.91;99521.69;12247262;19;20359;-84
2023/06/13 04:44:15;;;;;;;5.78;3.70;;;;;;;14.76;73.46;99526.41;12247757;19;20062;-84
2023/06/13 04:48:18;;;;;;;7.80;4.10;;;;;;;14.80;74.82;99533.84;12239306;19;20030;-84
2023/06/13 04:52:23;;;;;;;8.68;3.83;;;;;;;14.92;73.13;99533.53;12241423;19;20039;-84
2023/06/13 04:56:28;;;;;;;7.97;4.15;;;;;;;14.95;74.31;99532.94;12239332;19;20018;-83
2023/06/13 05:00:31;;;;;;;7.38;4.53;;;;;;;15.02;73.55;99547.34;12240982;19;20472;-85
2023/06/13 05:04:33;;;;;;;7.35;4.30;;;;;;;15.09;73.68;99547.03;12239650;19;20002;-83
2023/06/13 05:08:37;;;;;;;6.93;4.68;;;;;;;15.13;73.63;99550.06;12240642;19;20006;-84
2023/06/13 05:12:39;;;;;;;6.80;4.75;;;;;;;15.17;73.20;99546.44;12239395;19;20015;-85
2023/06/13 05:16:43;;;;;;;;;;;;;;;15.20;75.12;99547.78;12239333;19;20023;-84
2023/06/13 05:20:48;;;;;;;6.82;4.32;;;;;;;15.22;74.26;99551.13;12234553;19;19975;-82
2023/06/13 05:24:50;;;;;;;6.30;4.67;;;;;;;15.28;74.61;99550.78;12230919;19;20031;-86
2023/06/13 05:28:52;;;;;;;5.88;3.92;;;;;;;15.37;73.97;99561.28;12224541;19;20358;-84
2023/06/13 05:32:54;;;;;;;8.23;4.50;;;;;;;15.44;73.48;99557.09;12240204;19;20023;-84
2023/06/13 05:36:56;;;;;;;6.70;4.47;;;;;;;15.54;72.92;99558.13;12241632;19;20066;-83
2023/06/13 05:40:58;;;;;;;8.55;4.68;;;;;;;15.69;71.79;99566.38;12247973;19;20030;-83
2023/06/13 05:45:22;;;;;;;8.52;4.28;;;;;;;15.84;70.68;99562.66;12244967;19;20010;-84
2023/06/13 05:49:23;;;;;;;5.65;3.67;;;;;;;16.04;69.61;99568.03;12241883;19;20459;-83
2023/06/13 05:53:26;;;;;;;10.65;4.82;;;;;;;16.21;68.84;99561.19;12232739;19;20017;-83
2023/06/13 05:57:41;;;;;;;6.40;4.35;;;;;;;16.37;68.84;99565.47;12236650;19;20007;-83
2023/06/13 06:01:45;;;;;;;6.60;4.00;;;;;;;16.48;68.82;99568.97;12240216;19;20014;-83
2023/06/13 06:05:47;;;;;;;7.32;4.20;;;;;;;16.67;67.65;99575.44;12230747;19;20014;-83
2023/06/13 06:09:49;;;;;;;9.57;4.57;;;;;;;16.87;66.93;99568.00;12235309;19;20027;-84
2023/06/13 06:13:52;;;;;;;7.40;4.10;;;;;;;17.06;66.75;99575.25;12233002;19;20015;-83
2023/06/13 06:17:53;;;;;;;6.17;4.43;;;;;;;17.20;65.76;99572.56;12232324;19;20368;-84
2023/06/13 06:21:57;;;;;;;8.30;4.80;;;;;;;17.37;64.43;99587.91;12235230;19;20018;-81
2023/06/13 06:25:59;;;;;;;6.78;4.18;;;;;;;17.58;63.33;99572.59;12233648;19;20023;-82
2023/06/13 06:30:02;;;;;;;;;;;;;;;17.70;62.14;99575.72;12239079;19;20007;-84
2023/06/13 06:34:12;;;;;;;5.60;3.58;;;;;;;17.92;60.30;99572.31;12245327;19;19915;-84
2023/06/13 06:38:15;;;;;;;8.15;3.90;;;;;;;18.10;59.38;99570.63;12272239;19;20014;-83
2023/06/13 06:42:20;;;;;;;7.97;3.88;;;;;;;18.33;58.52;99568.81;12257275;19;20017;-82
2023/06/13 06:46:41;;;;;;;8.95;5.05;;;;;;;18.56;58.33;99564.22;12233641;19;20033;-83
2023/06/13 06:50:43;;;;;;;7.40;4.15;;;;;;;18.81;57.21;99567.66;12235807;19;20021;-84
2023/06/13 06:54:45;;;;;;;6.50;4.25;;;;;;;19.04;54.84;99569.41;12231395;19;20353;-84
2023/06/13 06:58:47;;;;;;;10.27;3.83;;;;;;;19.27;54.95;99567.47;12237497;19;20010;-82
2023/06/13 07:02:49;;;;;;;6.40;4.03;;;;;;;19.48;53.79;99567.00;12232865;19;20017;-82
2023/06/13 07:06:53;;;;;;;6.68;4.00;;;;;;;19.73;52.55;99572.03;12229049;19;20002;-82
2023/06/13 07:10:57;;;;;;;7.57;3.83;;;;;;;19.94;50.53;99569.56;12246631;19;20015;-82
2023/06/13 07:15:00;;;;;;;6.43;4.03;;;;;;;20.08;48.58;99568.66;12259299;19;20457;-82
2023/06/13 07:19:02;;;;;;;6.05;4.15;;;;;;;20.37;49.27;99570.97;12251829;19;20018;-82
2023/06/13 07:23:05;;;;;;;8.17;4.07;;;;;;;20.62;48.69;99575.09;12246011;19;20007;-83
2023/06/13 07:27:07;;;;;;;6.55;3.58;;;;;;;20.83;48.80;99578.16;12249089;19;20092;-83
2023/06/13 07:31:09;;;;;;;6.00;3.67;;;;;;;21.06;47.83;99576.91;12251059;19;20385;-82
2023/06/13 07:35:16;;;;;;;4.63;3.53;;;;;;;21.23;47.34;99575.28;12246952;19;20027;-84
2023/06/13 07:39:20;;;;;;;6.53;4.22;;;;;;;21.43;47.39;99579.47;12242354;19;20377;-83
2023/06/13 07:43:22;;;;;;;;;;;;;;;21.54;46.88;99576.03;12250601;19;20018;-82
2023/06/13 07:47:27;;;;;;;8.50;4.25;;;;;;;21.64;45.33;99574.88;12245984;19;19934;-84
2023/06/13 07:51:32;;;;;;;7.22;3.88;;;;;;;21.69;44.95;99554.25;12245028;19;20006;-83
2023/06/13 07:55:34;;;;;;;5.18;3.55;;;;;;;21.76;45.07;99554.59;12246764;19;20022;-84
2023/06/13 07:59:36;;;;;;;5.57;3.60;;;;;;;22.04;44.32;99553.06;12262496;19;20018;-84
2023/06/13 08:03:40;;;;;;;5.68;3.67;;;;;;;22.24;42.68;99537.53;12252826;19;20007;-84
2023/06/13 08:07:43;;;;;;;8.40;4.43;;;;;;;22.47;41.15;99545.72;12245948;19;20007;-85
2023/06/13 08:11:45;;;;;;;7.33;3.90;;;;;;;22.59;40.78;99543.03;12253958;19;20003;-83
2023/06/13 08:15:48;;;;;;;9.02;3.58;;;;;;;22.63;39.36;99535.56;12250214;19;20024;-85
2023/06/13 08:19:51;;;;;;;5.93;3.77;;;;;;;22.56;39.50;99526.84;12245637;19;20322;-84
2023/06/13 08:23:54;;;;;;;7.55;3.63;;;;;;;22.72;38.84;99535.53;12249719;19;20404;-83
2023/06/13 08:27:56;;;;;;;6.63;4.53;;;;;;;22.79;38.79;99526.59;12248109;19;20524;-82
2023/06/13 08:31:58;;;;;;;5.32;3.97;;;;;;;22.90;37.83;99528.69;12251822;19;20015;-84
2023/06/13 08:36:02;;;;;;;6.07;3.42;;;;;;;23.21;37.43;99527.53;12253146;19;20419;-82
2023/06/13 08:40:15;;;;;;;5.50;3.92;;;;;;;23.37;37.07;99519.28;12244764;19;20021;-84
2023/06/13 08:44:17;;;;;;;4.95;3.17;;;;;;;23.52;36.14;99526.28;12244192;19;20013;-83
2023/06/13 08:48:19;;;;;;;5.43;3.45;;;;;;;23.60;36.31;99511.34;12243065;19;20050;-85
2023/06/13 08:52:24;;;;;;;6.57;3.55;;;;;;;23.59;34.83;99512.50;12244775;19;20034;-85
2023/06/13 08:56:31;;;;;;;6.53;3.65;;;;;;;23.73;34.30;99513.06;12242364;19;20006;-82
2023/06/13 09:00:35;;;;;;;6.85;4.03;;;;;;;23.91;34.33;99519.34;12244869;19;20024;-83
2023/06/13 09:04:40;;;;;;;6.50;3.53;;;;;;;23.99;33.97;99529.69;12244716;19;20006;-85
2023/06/13 09:08:43;;;;;;;5.82;3.63;;;;;;;24.15;33.84;99512.13;12245092;19;20010;-83
2023/06/13 09:12:46;;;;;;;7.22;3.60;;;;;;;24.27;33.48;99504.56;12244490;19;20015;-82
2023/06/13 09:16:53;;;;;;;7.60;3.95;;;;;;;24.35;34.02;99505.63;12240812;19;20018;-83
2023/06/13 09:20:55;;;;;;;8.10;4.05;;;;;;;24.52;33.89;99488.53;12243423;19;20064;-83
2023/06/13 09:25:00;;;;;;;6.95;4.20;;;;;;;24.69;34.43;99497.91;12241456;19;20024;-81
2023/06/13 09:29:17;;;;;;;7.97;3.97;;;;;;;24.81;33.21;99488.66;12240801;19;20007;-84
2023/06/13 09:33:34;;;;;;;4.70;3.45;;;;;;;24.99;34.04;99493.69;12241766;19;20006;-84
2023/06/13 09:37:37;;;;;;;5.53;3.60;;;;;;;25.17;33.75;99487.81;12240365;19;20698;-84
2023/06/13 09:41:40;;;;;;;5.90;3.25;;;;;;;25.29;33.38;99481.34;12234128;19;20023;-83
2023/06/13 09:45:43;;;;;;;4.50;3.47;;;;;;;25.53;33.65;99481.25;12239141;19;20014;-85
2023/06/13 09:49:47;;;;;;;7.13;4.00;;;;;;;25.62;32.31;99470.63;12241170;19;20356;-84
2023/06/13 09:54:09;;;;;;;5.13;3.45;;;;;;;25.65;32.06;99472.75;12241553;19;20018;-84
2023/06/13 09:58:10;;;;;;;5.15;3.65;;;;;;;25.58;31.90;99471.69;12237965;19;20017;-83
2023/06/13 10:02:33;;;;;;;5.07;3.67;;;;;;;25.76;30.98;99473.06;12241551;19;20034;-82
2023/06/13 10:06:42;;;;;;;4.78;3.40;;;;;;;25.95;31.11;99463.09;12239820;19;20513;-83
2023/06/13 10:10:45;;;;;;;5.82;3.67;;;;;;;26.13;31.05;99448.28;12242545;19;20030;-83
2023/06/13 10:15:00;;;;;;;7.10;3.40;;;;;;;26.15;30.82;99447.94;12236764;19;20035;-84
2023/06/13 10:19:05;;;;;;;8.55;3.28;;;;;;;26.27;31.18;99459.13;12239319;19;20098;-83
2023/06/13 10:23:13;;;;;;;10.02;4.40;;;;;;;26.21;30.93;99454.13;12239990;19;20322;-83
2023/06/13 10:27:19;;;;;;;5.93;3.78;;;;;;;26.31;30.63;99454.38;12237028;19;20107;-85
2023/06/13 10:31:52;;;;;;;7.15;3.58;;;;;;;26.44;29.32;99455.09;12239463;19;20478;-83
2023/06/13 10:36:07;;;;;;;9.77;4.55;;;;;;;26.50;29.93;99439.56;12237678;19;20018;-85
2023/06/13 10:40:45;;;;;;;6.25;4.00;;;;;;;26.82;29.38;99445.97;12234895;19;20371;-84
2023/06/13 10:45:00;;;;;;;5.03;3.63;;;;;;;27.07;29.09;99442.91;12240190;19;20010;-85
2023/06/13 10:49:02;;;;;;;6.57;3.90;;;;;;;27.05;28.39;99439.63;12240969;19;20104;-82
2023/06/13 10:53:22;;;;;;;6.72;4.60;;;;;;;27.12;28.46;99433.31;12260261;19;20021;-81
2023/06/13 10:57:50;;;;;;;7.03;3.53;;;;;;;27.26;29.11;99425.97;12273252;19;20480;-84
2023/06/13 11:01:53;;;;;;;5.18;3.50;;;;;;;27.55;28.32;99420.13;12259179;19;20015;-83
2023/06/13 11:05:54;;;;;;;8.48;4.18;;;;;;;27.57;28.14;99424.19;12250967;19;20007;-83
2023/06/13 11:10:15;;;;;;;6.38;3.78;;;;;;;27.71;28.36;99421.63;12251369;19;20717;-83
2023/06/13 11:14:32;;;;;;;8.50;4.13;;;;;;;27.96;27.76;99421.31;12248685;19;20020;-83
2023/06/13 11:18:34;;;;;;;5.68;4.00;;;;;;;28.15;27.25;99409.94;12246263;19;20010;-82
2023/06/13 11:22:37;;;;;;;5.07;3.50;;;;;;;28.20;26.99;99417.31;12249289;19;20081;-83
2023/06/13 11:26:41;;;;;;;8.07;3.70;;;;;;;28.21;26.61;99401.94;12245437;19;20010;-83
2023/06/13 11:30:47;;;;;;;6.03;3.60;;;;;;;28.40;26.80;99401.03;12253077;19;20014;-84
2023/06/13 11:34:56;;;;;;;5.57;3.30;;;;;;;28.55;26.51;99402.94;12256163;19;20329;-84
2023/06/13 11:39:04;;;;;;;9.13;3.83;;;;;;;28.77;26.38;99406.94;12257802;19;20355;-83
2023/06/13 11:43:07;;;;;;;5.05;3.65;;;;;;;28.82;25.64;99398.09;12251403;19;20031;-83
2023/06/13 11:47:12;;;;;;;9.20;3.50;;;;;;;28.98;26.31;99399.94;12251843;19;20023;-84
2023/06/13 11:51:15;;;;;;;5.88;3.92;;;;;;;29.23;25.36;99383.25;12249349;19;20018;-81
2023/06/13 11:55:18;;;;;;;4.70;3.20;;;;;;;29.21;25.55;99388.50;12248250;19;20018;-85
2023/06/13 11:59:23;;;;;;;10.55;3.58;;;;;;;29.28;25.53;99382.94;12246758;19;20040;-85
2023/06/13 12:03:28;;;;;;;4.90;3.78;;;;;;;29.29;25.23;99378.88;12240594;19;20014;-85
2023/06/13 12:07:34;;;;;;;7.00;3.88;;;;;;;29.36;25.00;99381.81;12239926;19;20015;-84
2023/06/13 12:11:36;;;;;;;6.75;3.60;;;;;;;29.60;24.88;99380.47;12244368;19;20007;-80
2023/06/13 12:15:39;;;;;;;8.73;3.58;;;;;;;29.81;23.29;99381.94;12242427;19;20025;-81
2023/06/13 12:19:41;;;;;;;5.05;3.50;;;;;;;30.36;23.00;99373.53;12243210;19;20025;-81
2023/06/13 12:23:45;;;;;;;4.80;3.30;;;;;;;31.20;22.24;99371.59;12247869;19;20006;-83
2023/06/13 12:27:50;;;;;;;6.70;3.97;;;;;;;32.21;21.59;99375.56;12240595;19;20038;-82
2023/06/13 12:32:02;;;;;;;6.05;3.88;;;;;;;33.19;20.64;99371.38;12249841;19;20007;-84
2023/06/13 12:36:05;;;;;;;10.32;4.70;;;;;;;33.98;20.06;99361.16;12246295;19;20456;-83
2023/06/13 12:40:15;;;;;;;5.18;4.55;;;;;;;34.68;19.22;99340.13;12243213;19;20019;-82
2023/06/13 12:44:21;;;;;;;6.25;4.47;;;;;;;35.33;19.38;99354.53;12240930;19;20019;-83
2023/06/13 12:48:26;;;;;;;6.50;4.38;;;;;;;36.19;18.75;99334.03;12245533;19;20010;-82
2023/06/13 12:52:31;;;;;;;4.82;4.05;;;;;;;37.03;18.22;99329.22;12249157;19;20488;-84
2023/06/13 12:56:33;;;;;;;6.47;4.30;;;;;;;37.13;17.51;99328.22;12273412;19;20006;-82
2023/06/13 13:00:35;;;;;;;6.25;4.10;;;;;;;37.55;16.61;99322.00;12245790;19;20014;-83
2023/06/13 13:04:40;;;;;;;8.77;4.65;;;;;;;37.78;16.03;99309.53;12242492;19;20029;-82
2023/06/13 13:08:43;;;;;;;4.95;4.43;;;;;;;37.92;15.31;99314.94;12242134;19;20015;-85
2023/06/13 13:12:45;;;;;;;5.22;3.80;;;;;;;38.01;16.02;99305.72;12243959;19;20035;-83
2023/06/13 13:16:46;;;;;;;5.82;4.30;;;;;;;38.06;15.74;99305.97;12243309;19;20014;-83
2023/06/13 13:20:48;;;;;;;9.20;4.50;;;;;;;38.29;15.64;99301.31;12243663;19;20010;-83
2023/06/13 13:24:53;;;;;;;6.80;3.92;;;;;;;38.91;15.15;99298.38;12243897;19;20023;-81
2023/06/13 13:28:55;;;;;;;6.78;4.32;;;;;;;39.11;14.81;99304.78;12244049;19;20035;-83
2023/06/13 13:32:59;;;;;;;7.93;3.90;;;;;;;39.40;14.66;99303.94;12241245;19;20033;-84
2023/06/13 13:37:01;;;;;;;6.35;4.13;;;;;;;40.15;14.88;99292.06;12238753;19;20027;-85
2023/06/13 13:41:04;;;;;;;7.05;4.20;;;;;;;40.49;14.21;99282.66;12243473;19;20055;-85
2023/06/13 13:45:07;;;;;;;5.63;4.15;;;;;;;40.79;13.69;99286.13;12237151;19;20026;-85
2023/06/13 13:49:09;;;;;;;7.38;4.10;;;;;;;40.72;13.06;99287.97;12243014;19;20038;-84
2023/06/13 13:53:14;;;;;;;4.93;3.85;;;;;;;41.09;13.04;99256.50;12242096;19;20021;-85
2023/06/13 13:57:17;;;;;;;6.03;4.13;;;;;;;41.20;13.29;99271.34;12239340;19;20003;-85
2023/06/13 14:01:20;;;;;;;5.03;3.55;;;;;;;42.27;12.41;99259.53;12239809;19;20092;-84
2023/06/13 14:05:24;;;;;;;7.28;4.50;;;;;;;42.87;12.41;99258.16;12243483;19;20033;-86
2023/06/13 14:09:25;;;;;;;4.78;4.13;;;;;;;42.97;12.05;99254.72;12238627;19;20026;-85
2023/06/13 14:13:27;;;;;;;6.25;4.03;;;;;;;43.08;11.98;99262.13;12237688;19;20011;-85
2023/06/13 14:17:30;;;;;;;4.47;3.90;;;;;;;42.77;11.94;99245.75;12238735;19;20622;-85
2023/06/13 14:21:32;;;;;;;6.00;4.50;;;;;;;42.51;11.75;99248.97;12238989;19;20018;-85
2023/06/13 14:25:34;;;;;;;6.95;4.45;;;;;;;43.38;11.52;99243.69;12235788;19;20338;-86
2023/06/13 14:29:36;;;;;;;5.75;3.90;;;;;;;42.95;11.74;99242.81;12236028;19;20413;-84
2023/06/13 14:33:39;;;;;;;6.15;4.03;;;;;;;43.07;11.59;99240.22;12234062;19;20011;-86
2023/06/13 14:37:40;;;;;;;5.25;4.05;;;;;;;43.65;11.03;99230.38;12233924;19;20586;-85
2023/06/13 14:41:45;;;;;;;5.75;3.75;;;;;;;43.86;11.03;99225.59;12237890;19;20007;-84
2023/06/13 14:45:47;;;;;;;4.70;4.10;;;;;;;43.87;10.44;99224.28;12258940;19;20011;-86
2023/06/13 14:49:49;;;;;;;7.05;4.18;;;;;;;43.48;10.58;99224.13;12265979;19;20041;-83
2023/06/13 14:53:51;;;;;;;7.82;4.30;;;;;;;43.65;10.78;99212.97;12245348;19;20017;-86
2023/06/13 14:57:55;;;;;;;7.47;4.40;;;;;;;42.73;10.96;99207.44;12240215;19;20039;-86
2023/06/13 15:01:58;;;;;;;5.97;4.78;;;;;;;40.08;12.88;99207.34;12244052;19;20011;-85
2023/06/13 15:06:00;;;;;;;5.72;4.18;;;;;;;39.14;13.53;99203.03;12236686;19;20014;-84
2023/06/13 15:10:03;;;;;;;7.22;4.40;;;;;;;39.17;13.54;99195.53;12242761;19;20010;-85
2023/06/13 15:14:09;;;;;;;5.32;3.85;;;;;;;39.60;13.22;99197.06;12241832;19;20015;-83
2023/06/13 15:18:11;;;;;;;7.53;4.40;;;;;;;40.72;12.43;99189.78;12236946;19;20017;-86
2023/06/13 15:22:13;;;;;;;6.93;4.20;;;;;;;39.85;13.04;99188.38;12240636;19;20023;-85
2023/06/13 15:26:16;;;;;;;6.13;4.40;;;;;;;37.20;14.41;99191.44;12234730;19;20042;-85
2023/06/13 15:30:18;;;;;;;6.47;4.30;;;;;;;34.72;15.99;99192.13;12238763;19;20018;-84
2023/06/13 15:34:21;;;;;;;5.88;4.10;;;;;;;33.08;16.79;99188.75;12235083;19;20419;-84
2023/06/13 15:38:22;;;;;;;7.05;5.28;;;;;;;32.03;17.32;99187.47;12236682;19;20014;-84
2023/06/13 15:42:25;;;;;;;5.55;4.22;;;;;;;31.20;18.42;99186.63;12265120;19;20015;-84
2023/06/13 15:46:28;;;;;;;7.25;4.13;;;;;;;30.42;18.94;99187.19;12241023;19;20022;-85
2023/06/13 15:50:32;;;;;;;6.03;4.57;;;;;;;29.81;19.20;99183.16;12248499;19;20014;-83
2023/06/13 15:54:34;;;;;;;7.70;4.28;;;;;;;30.04;19.28;99185.72;12249462;19;20010;-82
2023/06/13 15:58:37;;;;;;;6.38;3.65;;;;;;;29.52;19.95;99180.88;12248418;19;20005;-83
2023/06/13 16:02:41;;;;;;;5.45;4.07;;;;;;;29.17;20.38;99174.88;12249282;19;20007;-83
2023/06/13 16:06:43;;;;;;;7.07;4.30;;;;;;;28.75;20.75;99182.50;12245043;19;20011;-83
2023/06/13 16:10:45;;;;;;;4.95;3.70;;;;;;;28.43;20.94;99179.28;12247647;19;20421;-84
2023/06/13 16:14:47;;;;;;;9.55;4.00;;;;;;;28.18;21.45;99168.41;12243613;19;20020;-83
2023/06/13 16:18:49;;;;;;;5.05;3.88;;;;;;;28.03;21.52;99171.44;12246047;19;20010;-84
2023/06/13 16:22:51;;;;;;;6.75;3.85;;;;;;;28.05;21.75;99167.03;12245672;19;20066;-84
2023/06/13 16:26:52;;;;;;;8.02;3.72;;;;;;;28.08;21.72;99171.94;12242247;19;20516;-83
2023/06/13 16:30:58;;;;;;;9.57;4.50;;;;;;;27.80;21.86;99177.97;12241973;19;20468;-84
2023/06/13 16:35:02;;;;;;;7.68;3.47;;;;;;;27.60;23.47;99174.38;12243356;19;20034;-83
2023/06/13 16:39:05;;;;;;;6.47;3.67;;;;;;;27.44;23.30;99185.06;12244000;19;20010;-83
2023/06/13 16:43:07;;;;;;;5.72;4.07;;;;;;;27.30;23.52;99167.81;12244032;19;20010;-84
2023/06/13 16:47:09;;;;;;;6.03;4.00;;;;;;;27.16;23.19;99180.53;12239463;19;20014;-83
2023/06/13 16:51:11;;;;;;;6.25;3.75;;;;;;;27.04;23.64;99172.22;12243654;19;20014;-81
2023/06/13 16:55:13;;;;;;;7.10;3.60;;;;;;;26.89;23.57;99168.31;12239325;19;20019;-82
2023/06/13 16:59:16;;;;;;;6.28;4.03;;;;;;;26.86;24.14;99166.22;12235109;19;20011;-83
2023/06/13 17:03:19;;;;;;;8.68;4.05;;;;;;;26.84;23.81;99167.78;12235625;19;20022;-84
2023/06/13 17:07:21;;;;;;;6.43;3.97;;;;;;;26.78;24.41;99170.91;12235095;19;20042;-83
2023/06/13 17:11:23;;;;;;;5.30;3.50;;;;;;;26.67;24.24;99167.06;12237400;19;20418;-84
2023/06/13 17:15:25;;;;;;;6.97;4.03;;;;;;;26.59;24.83;99163.28;12237776;19;20011;-83
2023/06/13 17:19:27;;;;;;;6.10;3.80;;;;;;;26.55;24.60;99168.03;12238294;19;20018;-82
2023/06/13 17:23:29;;;;;;;6.55;3.80;;;;;;;26.46;24.85;99163.78;12234848;19;20010;-84
2023/06/13 17:27:30;;;;;;;5.28;3.65;;;;;;;26.44;24.87;99160.50;12234860;19;20031;-82
2023/06/13 17:31:34;;;;;;;9.52;3.80;;;;;;;26.44;25.62;99161.31;12236561;19;20010;-83
2023/06/13 17:35:36;;;;;;;5.07;3.58;;;;;;;26.45;25.81;99165.78;12245432;19;20018;-83
2023/06/13 17:39:38;;;;;;;4.65;3.80;;;;;;;26.40;25.54;99157.59;12247347;19;20356;-84
2023/06/13 17:43:39;;;;;;;6.82;3.60;;;;;;;26.30;25.84;99163.84;12249673;19;20011;-85
2023/06/13 17:47:42;;;;;;;6.93;3.35;;;;;;;26.22;25.56;99164.88;12237787;19;20009;-85
2023/06/13 17:51:44;;;;;;;8.13;4.25;;;;;;;26.14;25.44;99166.72;12245349;19;20414;-82
2023/06/13 17:55:46;;;;;;;4.90;3.23;;;;;;;26.09;25.87;99164.22;12236694;19;20025;-82
2023/06/13 17:59:48;;;;;;;7.35;4.00;;;;;;;26.01;26.10;99168.06;12240514;19;20861;-84
2023/06/13 18:03:51;;;;;;;8.88;3.58;;;;;;;25.95;26.01;99167.53;12239089;19;20520;-83
2023/06/13 18:07:53;;;;;;;5.55;3.72;;;;;;;25.84;26.54;99167.28;12238897;19;20006;-83
2023/06/13 18:11:56;;;;;;;9.00;3.50;;;;;;;25.74;26.99;99170.66;12239455;19;20039;-87
2023/06/13 18:16:10;;;;;;;8.00;4.30;;;;;;;25.60;27.75;99170.31;12236123;19;20011;-86
2023/06/13 18:20:11;;;;;;;5.80;3.33;;;;;;;25.43;28.31;99177.13;12237071;19;20406;-86
2023/06/13 18:24:15;;;;;;;8.98;3.50;;;;;;;25.25;28.33;99168.22;12241514;19;20017;-84
2023/06/13 18:28:22;;;;;;;5.55;3.28;;;;;;;25.12;29.17;99177.94;12240057;19;20021;-84
2023/06/13 18:32:24;;;;;;;8.20;4.45;;;;;;;24.94;29.61;99181.09;12245340;19;20014;-85
2023/06/13 18:36:26;;;;;;;6.28;3.40;;;;;;;24.75;30.25;99184.59;12232306;19;20023;-84
2023/06/13 18:40:28;;;;;;;6.43;4.43;;;;;;;24.55;30.26;99183.63;12244153;19;20022;-84
2023/06/13 18:44:30;;;;;;;5.77;3.60;;;;;;;24.35;30.80;99190.25;12234979;19;20366;-84
2023/06/13 18:48:32;;;;;;;10.65;3.80;;;;;;;24.13;31.47;99200.06;12230703;19;20070;-85
2023/06/13 18:52:38;;;;;;;7.20;3.38;;;;;;;23.90;32.39;99191.31;12235181;19;20035;-85
2023/06/13 18:56:46;;;;;;;4.43;3.60;;;;;;;23.68;32.96;99192.59;12229565;19;20010;-86
2023/06/13 19:00:49;;;;;;;4.45;3.50;;;;;;;23.44;33.29;99190.59;12231566;19;20441;-82